createdAt,value
2022-09-18T00:00:35.443Z,0.50
2022-09-18T00:03:37.198Z,0.43
2022-09-18T00:06:41.248Z,0.50
2022-09-18T00:09:43.587Z,0.40
2022-09-18T00:12:44.973Z,0.38
2022-09-18T00:15:54.448Z,0.50
2022-09-18T00:18:56.507Z,0.45
2022-09-18T00:21:57.929Z,0.40
2022-09-18T00:24:59.324Z,0.40
2022-09-18T00:28:00.773Z,0.32
2022-09-18T00:31:26.466Z,0.95
2022-09-18T00:34:28.077Z,0.40
2022-09-18T00:37:29.517Z,0.50
2022-09-18T00:40:31.046Z,0.40
2022-09-18T00:43:35.269Z,0.43
2022-09-18T00:46:37.358Z,0.40
2022-09-18T00:49:50.915Z,0.30
2022-09-18T00:53:06.055Z,0.38
2022-09-18T00:56:09.522Z,0.52
2022-09-18T00:59:13.908Z,0.40
2022-09-18T01:02:15.481Z,0.40
2022-09-18T01:05:23.269Z,0.60
2022-09-18T01:08:44.111Z,0.60
2022-09-18T01:11:49.427Z,0.40
2022-09-18T01:15:00.804Z,0.50
2022-09-18T01:18:28.897Z,0.38
2022-09-18T01:21:38.291Z,0.40
2022-09-18T01:24:55.244Z,0.40
2022-09-18T01:28:15.629Z,0.43
2022-09-18T01:31:27.783Z,0.40
2022-09-18T01:34:47.799Z,0.50
2022-09-18T01:38:03.702Z,0.47
2022-09-18T01:41:12.610Z,0.47
2022-09-18T01:44:18.810Z,0.60
2022-09-18T01:47:24.013Z,0.30
2022-09-18T01:50:32.556Z,0.50
2022-09-18T01:53:39.748Z,0.30
2022-09-18T01:57:07.883Z,0.40
2022-09-18T02:00:12.338Z,0.40
2022-09-18T02:03:27.112Z,0.40
2022-09-18T02:06:41.909Z,0.60
2022-09-18T02:09:44.419Z,0.50
2022-09-18T02:15:51.798Z,0.50
2022-09-18T02:19:01.124Z,0.40
2022-09-18T02:22:07.176Z,0.55
2022-09-18T02:25:11.331Z,0.50
2022-09-18T02:28:19.094Z,0.30
2022-09-18T02:31:21.143Z,0.60
2022-09-18T02:34:22.638Z,0.50
2022-09-18T02:37:42.858Z,0.40
2022-09-18T02:41:29.442Z,0.50
2022-09-18T02:44:39.974Z,0.47
2022-09-18T02:47:53.599Z,0.70
2022-09-18T02:51:30.925Z,0.50
2022-09-18T02:54:37.823Z,0.38
2022-09-18T02:58:03.081Z,0.50
2022-09-18T03:01:07.852Z,0.60
2022-09-18T03:04:13.815Z,0.50
2022-09-18T03:07:32.761Z,0.70
2022-09-18T03:10:34.635Z,0.60
2022-09-18T03:13:36.774Z,0.43
2022-09-18T03:16:38.646Z,0.50
2022-09-18T03:19:40.070Z,0.50
2022-09-18T03:22:42.044Z,0.50
2022-09-18T03:25:45.330Z,0.50
2022-09-18T03:28:48.195Z,0.60
2022-09-18T03:31:49.651Z,0.40
2022-09-18T03:34:52.525Z,0.43
2022-09-18T03:37:55.802Z,0.85
2022-09-18T03:41:00.683Z,0.40
2022-09-18T03:44:03.209Z,0.38
2022-09-18T03:47:04.884Z,0.50
2022-09-18T03:50:06.966Z,0.40
2022-09-18T03:56:30.058Z,0.50
2022-09-18T03:59:50.897Z,0.40
2022-09-18T04:03:12.385Z,0.45
2022-09-18T04:06:36.782Z,0.40
2022-09-18T04:09:56.586Z,0.40
2022-09-18T04:12:58.003Z,0.40
2022-09-18T04:16:05.159Z,0.30
2022-09-18T04:19:06.657Z,0.40
2022-09-18T04:22:08.176Z,0.40
2022-09-18T04:25:11.854Z,0.43
2022-09-18T04:28:14.091Z,0.40
2022-09-18T04:31:19.099Z,0.40
2022-09-18T04:34:21.542Z,0.40
2022-09-18T04:37:22.995Z,0.40
2022-09-18T04:40:26.976Z,0.47
2022-09-18T04:43:28.894Z,0.52
2022-09-18T04:46:30.496Z,0.40
2022-09-18T04:49:32.058Z,0.50
2022-09-18T04:52:35.921Z,0.40
2022-09-18T04:55:39.362Z,0.30
2022-09-18T04:58:44.222Z,0.43
2022-09-18T05:01:46.633Z,0.40
2022-09-18T05:04:49.486Z,0.50
2022-09-18T05:08:02.501Z,0.35
2022-09-18T05:11:04.878Z,0.30
2022-09-18T05:14:09.748Z,0.38
2022-09-18T05:17:11.570Z,0.40
2022-09-18T05:20:16.620Z,0.82
2022-09-18T05:23:18.230Z,0.40
2022-09-18T05:26:19.667Z,0.60
2022-09-18T05:29:21.129Z,0.30
2022-09-18T05:35:28.385Z,0.40
2022-09-18T05:38:29.826Z,0.70
2022-09-18T05:41:31.245Z,0.40
2022-09-18T05:44:36.627Z,0.40
2022-09-18T05:48:01.801Z,0.45
2022-09-18T05:51:05.130Z,0.40
2022-09-18T05:54:06.678Z,0.40
2022-09-18T05:57:14.170Z,0.50
2022-09-18T06:00:15.737Z,0.40
2022-09-18T06:03:21.415Z,0.68
2022-09-18T06:06:22.931Z,0.50
2022-09-18T06:09:24.365Z,0.43
2022-09-18T06:12:25.779Z,0.43
2022-09-18T06:15:27.237Z,1.13
2022-09-18T06:18:28.687Z,0.60
2022-09-18T06:21:32.472Z,0.40
2022-09-18T06:24:34.545Z,0.43
2022-09-18T06:27:41.328Z,0.40
2022-09-18T06:30:42.884Z,0.50
2022-09-18T06:33:44.666Z,0.50
2022-09-18T06:36:47.547Z,0.63
2022-09-18T06:39:55.678Z,0.40
2022-09-18T06:43:11.674Z,0.63
2022-09-18T06:46:48.351Z,0.50
2022-09-18T06:50:03.918Z,0.60
2022-09-18T06:53:10.235Z,0.50
2022-09-18T06:56:16.330Z,0.55
2022-09-18T06:59:17.926Z,0.50
2022-09-18T07:02:19.927Z,0.60
2022-09-18T07:05:31.357Z,0.68
2022-09-18T07:08:33.082Z,0.50
2022-09-18T07:11:44.943Z,0.50
2022-09-18T07:14:46.373Z,0.70
2022-09-18T07:17:49.338Z,0.77
2022-09-18T07:20:53.679Z,0.60
2022-09-18T07:24:06.326Z,0.80
2022-09-18T07:27:07.739Z,0.60
2022-09-18T07:30:11.063Z,0.60
2022-09-18T07:33:12.635Z,0.60
2022-09-18T07:36:20.944Z,0.73
2022-09-18T07:43:05.295Z,0.43
2022-09-18T07:46:08.122Z,0.70
2022-09-18T07:49:09.615Z,0.60
2022-09-18T07:52:11.707Z,0.60
2022-09-18T07:55:25.381Z,0.70
2022-09-18T07:58:28.072Z,0.60
2022-09-18T08:01:40.191Z,0.70
2022-09-18T08:04:41.721Z,0.75
2022-09-18T08:07:51.849Z,0.80
2022-09-18T08:11:08.704Z,1.02
2022-09-18T08:14:29.225Z,0.60
2022-09-18T08:17:53.919Z,0.77
2022-09-18T08:21:12.075Z,0.60
2022-09-18T08:24:17.922Z,0.70
2022-09-18T08:27:20.601Z,0.50
2022-09-18T08:30:22.064Z,0.60
2022-09-18T08:33:28.587Z,0.80
2022-09-18T08:36:30.061Z,0.80
2022-09-18T08:39:48.684Z,0.60
2022-09-18T08:43:29.807Z,0.50
2022-09-18T08:46:49.509Z,0.60
2022-09-18T08:49:57.714Z,0.70
2022-09-18T08:53:05.673Z,0.50
2022-09-18T08:56:24.640Z,0.70
2022-09-18T08:59:54.939Z,0.50
2022-09-18T09:03:09.234Z,0.70
2022-09-18T09:06:19.635Z,0.80
2022-09-18T09:09:33.297Z,0.93
2022-09-18T09:12:56.433Z,0.80
2022-09-18T09:16:05.309Z,0.63
2022-09-18T09:19:28.748Z,0.60
2022-09-18T09:22:45.867Z,0.63
2022-09-18T09:25:56.692Z,0.68
2022-09-18T09:29:34.876Z,0.80
2022-09-18T09:33:02.749Z,0.80
2022-09-18T09:36:19.018Z,0.75
2022-09-18T09:39:32.524Z,0.45
2022-09-18T09:42:41.868Z,0.70
2022-09-18T09:45:50.255Z,0.60
2022-09-18T09:49:01.172Z,0.80
2022-09-18T09:52:09.413Z,0.55
2022-09-18T09:55:14.693Z,0.60
2022-09-18T09:58:27.894Z,0.77
2022-09-18T10:01:38.149Z,0.70
2022-09-18T10:04:58.863Z,0.80
2022-09-18T10:08:32.225Z,0.75
2022-09-18T10:11:37.649Z,0.63
2022-09-18T10:14:41.950Z,0.50
2022-09-18T10:17:45.058Z,0.60
2022-09-18T10:20:50.235Z,0.50
2022-09-18T10:24:14.405Z,0.70
2022-09-18T10:27:17.246Z,0.60
2022-09-18T10:30:18.788Z,1.00
2022-09-18T10:33:42.697Z,0.60
2022-09-18T10:36:50.715Z,0.70
2022-09-18T10:39:57.384Z,0.43
2022-09-18T10:43:00.391Z,0.57
2022-09-18T10:46:03.053Z,0.88
2022-09-18T10:49:56.825Z,0.90
2022-09-18T10:53:42.358Z,0.65
2022-09-18T10:56:50.246Z,0.65
2022-09-18T10:59:52.650Z,0.65
2022-09-18T11:02:59.344Z,0.60
2022-09-18T11:06:10.614Z,0.90
2022-09-18T11:09:18.372Z,1.10
2022-09-18T11:12:27.183Z,0.80
2022-09-18T11:15:31.831Z,0.45
2022-09-18T11:18:33.433Z,0.70
2022-09-18T11:21:45.028Z,0.70
2022-09-18T11:24:47.567Z,0.60
2022-09-18T11:27:55.738Z,0.77
2022-09-18T11:31:16.916Z,0.73
2022-09-18T11:34:38.331Z,0.55
2022-09-18T11:37:55.641Z,0.75
2022-09-18T11:41:01.559Z,0.82
2022-09-18T11:44:21.943Z,0.70
2022-09-18T11:47:43.111Z,0.82
2022-09-18T11:50:45.416Z,1.13
2022-09-18T11:53:55.216Z,0.80
2022-09-18T11:57:02.201Z,0.40
2022-09-18T12:00:21.530Z,0.50
2022-09-18T12:03:34.106Z,0.70
2022-09-18T12:06:48.172Z,0.60
2022-09-18T12:09:56.196Z,0.70
2022-09-18T12:13:32.269Z,0.50
2022-09-18T12:16:52.307Z,0.52
2022-09-18T12:20:03.984Z,0.50
2022-09-18T12:23:12.978Z,0.50
2022-09-18T12:26:44.415Z,0.50
2022-09-18T12:30:09.260Z,0.57
2022-09-18T12:33:34.359Z,0.65
2022-09-18T12:36:45.556Z,0.40
2022-09-18T12:39:55.898Z,0.65
2022-09-18T12:43:12.709Z,0.90
2022-09-18T12:46:17.106Z,2.00
2022-09-18T12:49:37.134Z,3.50
2022-09-18T12:53:00.296Z,1.95
2022-09-18T12:56:34.198Z,1.40
2022-09-18T12:59:57.940Z,1.00
2022-09-18T13:03:26.661Z,0.60
2022-09-18T13:06:46.893Z,1.02
2022-09-18T13:10:06.601Z,1.30
2022-09-18T13:13:42.682Z,1.80
2022-09-18T13:16:54.692Z,0.73
2022-09-18T13:20:03.059Z,0.50
2022-09-18T13:23:06.458Z,0.60
2022-09-18T13:26:12.937Z,0.50
2022-09-18T13:29:45.360Z,0.40
2022-09-18T13:32:46.774Z,0.40
2022-09-18T13:35:55.688Z,0.50
2022-09-18T13:39:01.747Z,0.40
2022-09-18T13:42:03.341Z,0.50
2022-09-18T13:45:21.287Z,0.40
2022-09-18T13:48:34.261Z,0.43
2022-09-18T13:51:37.175Z,0.38
2022-09-18T13:54:39.438Z,0.60
2022-09-18T13:57:42.206Z,0.60
2022-09-18T14:00:43.662Z,0.60
2022-09-18T14:03:45.054Z,0.32
2022-09-18T14:06:46.621Z,0.45
2022-09-18T14:09:55.587Z,0.50
2022-09-18T14:13:27.063Z,1.00
2022-09-18T14:16:32.938Z,0.40
2022-09-18T14:19:36.126Z,0.50
2022-09-18T14:22:40.247Z,0.50
2022-09-18T14:25:45.458Z,0.80
2022-09-18T14:28:48.380Z,0.55
2022-09-18T14:31:56.656Z,0.52
2022-09-18T14:35:17.013Z,0.50
2022-09-18T14:38:26.330Z,0.90
2022-09-18T14:41:35.233Z,0.70
2022-09-18T14:44:38.017Z,0.50
2022-09-18T14:47:41.842Z,0.82
2022-09-18T14:50:43.243Z,0.47
2022-09-18T14:53:49.784Z,0.60
2022-09-18T14:56:53.685Z,1.75
2022-09-18T14:59:58.388Z,2.08
2022-09-18T15:03:14.574Z,4.18
2022-09-18T15:06:21.487Z,6.18
2022-09-18T15:09:28.530Z,2.63
2022-09-18T15:12:32.548Z,1.95
2022-09-18T15:15:39.444Z,1.85
2022-09-18T15:18:42.454Z,1.45
2022-09-18T15:21:47.571Z,1.08
2022-09-18T15:24:49.402Z,0.70
2022-09-18T15:27:53.694Z,0.80
2022-09-18T15:30:59.188Z,0.60
2022-09-18T15:34:14.592Z,1.00
2022-09-18T15:37:22.381Z,0.60
2022-09-18T15:40:30.623Z,0.60
2022-09-18T15:43:33.613Z,0.73
2022-09-18T15:46:37.066Z,1.70
2022-09-18T15:49:38.491Z,1.52
2022-09-18T15:52:47.178Z,1.42
2022-09-18T15:55:58.778Z,1.15
2022-09-18T15:59:03.900Z,0.95
2022-09-18T16:02:21.882Z,0.65
2022-09-18T16:05:24.478Z,0.75
2022-09-18T16:08:29.610Z,0.90
2022-09-18T16:11:38.494Z,0.90
2022-09-18T16:14:45.641Z,0.60
2022-09-18T16:17:56.632Z,0.80
2022-09-18T16:21:08.698Z,0.57
2022-09-18T16:24:28.264Z,0.40
2022-09-18T16:27:29.649Z,0.60
2022-09-18T16:30:31.031Z,0.50
2022-09-18T16:33:33.853Z,0.45
2022-09-18T16:36:41.412Z,0.50
2022-09-18T16:39:42.881Z,0.45
2022-09-18T16:42:44.644Z,0.50
2022-09-18T16:45:50.704Z,0.60
2022-09-18T16:48:54.765Z,0.50
2022-09-18T16:51:57.573Z,1.35
2022-09-18T16:54:58.924Z,1.13
2022-09-18T16:58:01.217Z,1.30
2022-09-18T17:01:05.086Z,1.08
2022-09-18T17:04:07.042Z,1.30
2022-09-18T17:07:08.570Z,0.80
2022-09-18T17:10:13.340Z,1.25
2022-09-18T17:13:14.982Z,0.70
2022-09-18T17:16:35.266Z,1.10
2022-09-18T17:19:40.864Z,0.80
2022-09-18T17:22:42.268Z,0.40
2022-09-18T17:25:44.770Z,0.60
2022-09-18T17:28:46.211Z,0.50
2022-09-18T17:31:47.684Z,0.40
2022-09-18T17:34:49.106Z,0.60
2022-09-18T17:37:51.617Z,0.52
2022-09-18T17:40:58.086Z,1.37
2022-09-18T17:43:59.923Z,0.57
2022-09-18T17:47:01.495Z,0.50
2022-09-18T17:50:05.093Z,0.70
2022-09-18T17:53:06.522Z,0.50
2022-09-18T17:56:20.011Z,0.55
2022-09-18T17:59:21.386Z,0.60
2022-09-18T18:02:22.863Z,0.60
2022-09-18T18:05:24.355Z,0.75
2022-09-18T18:08:27.789Z,0.68
2022-09-18T18:14:31.590Z,0.77
2022-09-18T18:17:35.744Z,0.90
2022-09-18T18:20:37.808Z,0.70
2022-09-18T18:23:39.209Z,0.50
2022-09-18T18:26:41.146Z,0.57
2022-09-18T18:29:42.574Z,0.40
2022-09-18T18:32:44.173Z,0.40
2022-09-18T18:35:45.717Z,0.40
2022-09-18T18:38:49.609Z,1.67
2022-09-18T18:41:51.130Z,1.98
2022-09-18T18:44:52.580Z,1.02
2022-09-18T18:47:55.633Z,0.40
2022-09-18T18:50:58.062Z,0.55
2022-09-18T18:54:03.619Z,0.57
2022-09-18T18:57:05.338Z,0.50
2022-09-18T19:00:08.213Z,0.38
2022-09-18T19:03:09.926Z,0.52
2022-09-18T19:06:11.634Z,0.43
2022-09-18T19:09:24.658Z,0.50
2022-09-18T19:12:26.629Z,0.50
2022-09-18T19:15:28.189Z,0.40
2022-09-18T19:18:29.723Z,0.88
2022-09-18T19:21:31.171Z,0.43
2022-09-18T19:24:32.702Z,0.70
2022-09-18T19:27:34.600Z,0.60
2022-09-18T19:30:39.099Z,0.40
2022-09-18T19:33:40.825Z,0.50
2022-09-18T19:36:48.903Z,0.50
2022-09-18T19:39:50.397Z,0.40
2022-09-18T19:42:58.818Z,0.50
2022-09-18T19:46:01.359Z,0.30
2022-09-18T19:49:03.036Z,0.30
2022-09-18T19:52:15.208Z,0.90
2022-09-18T19:55:18.429Z,0.50
2022-09-18T19:58:20.273Z,0.50
2022-09-18T20:01:21.779Z,0.45
2022-09-18T20:04:23.419Z,0.57
2022-09-18T20:07:25.234Z,0.52
2022-09-18T20:10:27.281Z,0.68
2022-09-18T20:13:28.820Z,0.60
2022-09-18T20:16:30.428Z,0.60
2022-09-18T20:19:32.281Z,0.50
2022-09-18T20:22:37.226Z,0.70
2022-09-18T20:25:38.972Z,0.40
2022-09-18T20:28:40.497Z,0.90
2022-09-18T20:31:42.428Z,0.50
2022-09-18T20:34:47.791Z,0.40
2022-09-18T20:37:49.474Z,0.30
2022-09-18T20:41:06.733Z,0.65
2022-09-18T20:44:09.001Z,0.40
2022-09-18T20:47:10.436Z,0.40
2022-09-18T20:50:13.494Z,0.40
2022-09-18T20:53:14.930Z,0.65
2022-09-18T20:56:21.493Z,0.60
2022-09-18T20:59:24.761Z,0.93
2022-09-18T21:02:26.283Z,0.57
2022-09-18T21:05:27.745Z,0.45
2022-09-18T21:08:29.760Z,0.40
2022-09-18T21:11:34.419Z,0.50
2022-09-18T21:14:36.813Z,0.40
2022-09-18T21:17:38.454Z,0.50
2022-09-18T21:20:40.706Z,0.60
2022-09-18T21:23:56.165Z,0.40
2022-09-18T21:26:57.899Z,0.50
2022-09-18T21:29:59.273Z,0.40
2022-09-18T21:33:01.739Z,0.40
2022-09-18T21:36:03.684Z,0.43
2022-09-18T21:39:09.662Z,0.55
2022-09-18T21:42:11.337Z,0.45
2022-09-18T21:45:20.548Z,0.50
2022-09-18T21:48:23.314Z,1.10
2022-09-18T21:51:24.698Z,0.63
2022-09-18T21:54:27.078Z,0.43
2022-09-18T21:57:28.553Z,0.63
2022-09-18T22:00:30.035Z,0.38
2022-09-18T22:03:31.738Z,0.50
2022-09-18T22:06:35.868Z,0.30
2022-09-18T22:09:38.104Z,0.40
2022-09-18T22:12:39.654Z,0.40
2022-09-18T22:15:41.050Z,0.40
2022-09-18T22:18:42.433Z,0.32
2022-09-18T22:21:46.391Z,0.30
2022-09-18T22:24:47.913Z,0.40
2022-09-18T22:27:49.356Z,0.40
2022-09-18T22:30:50.822Z,0.40
2022-09-18T22:33:57.603Z,0.40
2022-09-18T22:37:00.051Z,0.50
2022-09-18T22:40:02.038Z,0.85
2022-09-18T22:43:03.652Z,0.43
2022-09-18T22:46:14.023Z,0.50
2022-09-18T22:49:17.006Z,0.40
2022-09-18T22:52:18.530Z,0.50
2022-09-18T22:55:21.611Z,0.47
2022-09-18T22:58:23.012Z,0.93
2022-09-18T23:01:28.892Z,0.40
2022-09-18T23:04:33.394Z,0.50
2022-09-18T23:07:35.826Z,0.35
2022-09-18T23:10:37.237Z,0.50
2022-09-18T23:13:40.405Z,0.40
2022-09-18T23:16:41.848Z,0.75
2022-09-18T23:19:43.692Z,0.50
2022-09-18T23:22:45.129Z,0.50
2022-09-18T23:25:46.512Z,0.60
2022-09-18T23:28:47.873Z,0.43
2022-09-18T23:31:52.723Z,0.50
2022-09-18T23:34:55.074Z,0.40
2022-09-18T23:37:56.484Z,0.30
2022-09-18T23:41:02.138Z,0.30
2022-09-18T23:44:05.221Z,0.30
2022-09-18T23:47:06.804Z,0.15
2022-09-18T23:50:08.442Z,0.30
2022-09-18T23:53:09.830Z,0.15
2022-09-18T23:56:13.440Z,0.20
2022-09-18T23:59:18.650Z,0.20
